Flight Track Log - Related Links

Times and Time Zones

All times are in EDT time to prevent confusion due to time zone crossing. See the N99AZ flight status page for this flight to view local times or setup timezone preferences in your user account.

Time Position Orientation Groundspeed Altitude Reporting Facility
EDT Latitude Longitude Course Direction KTS MPH feet Rate Location/Type
Fri 09:43:11 AM 38.1003 -121.9675 32° Northeast 86 99 3,600  Level Oakland Center
Fri 09:44:12 AM 38.1203 -121.9464 40° Northeast 92 106 4,100 492 Climbing Oakland Center
Fri 09:45:13 AM 38.1403 -121.9214 45° Northeast 99 114 4,600 443 Climbing Oakland Center
Fri 09:46:14 AM 38.1597 -121.8928 49° Northeast 105 121 5,000 443 Climbing Oakland Center
Fri 09:47:00 AM 38.0709 -121.8333 32° Northeast  Level FlightAware Approximate
Fri 09:47:15 AM 38.1794 -121.8639 49° Northeast 108 124 5,500  Level Oakland Center
Fri 09:48:00 AM 38.1027 -121.8079 32° Northeast  Level FlightAware Approximate
Fri 09:48:16 AM 38.1986 -121.8333 51° Northeast 110 127 5,900  Level Oakland Center
Fri 09:49:17 AM 38.2189 -121.8028 50° Northeast 112 129 6,400 443 Climbing Oakland Center
Fri 09:50:18 AM 38.2386 -121.7722 51° Northeast 112 129 6,800 443 Climbing Oakland Center
Fri 09:51:19 AM 38.2594 -121.7400 51° Northeast 116 133 7,300 443 Climbing Oakland Center
Fri 09:52:20 AM 38.2794 -121.7086 51° Northeast 115 132 7,700 397 Climbing Oakland Center
Fri 09:53:20 AM 38.2992 -121.6775 51° Northeast 113 130 8,100 496 Climbing Oakland Center
Fri 09:54:21 AM 38.3242 -121.6392 50° Northeast 116 133 8,700 545 Climbing Oakland Center
Fri 09:55:10 AM 38.3333 -121.6167 63° Northeast 119 137 9,100 440 Climbing Northern Cal TRACON
Fri 09:56:10 AM 38.3667 -121.5833 38° Northeast 120 138 9,500 421 Climbing Northern Cal TRACON
Fri 09:57:04 AM 38.3833 -121.5500 57° Northeast 120 138 9,900 450 Climbing Northern Cal TRACON
Fri 09:58:10 AM 38.4000 -121.5167 57° Northeast 122 140 10,400 450 Climbing Northern Cal TRACON
Fri 09:59:04 AM 38.4167 -121.4833 57° Northeast 121 139 10,800 300 Climbing Northern Cal TRACON
Fri 10:00:10 AM 38.4500 -121.4500 38° Northeast 137 158 11,000 105 Climbing Northern Cal TRACON
Fri 10:00:58 AM 38.4667 -121.4167 57° Northeast 151 174 11,000  Level Northern Cal TRACON
Fri 10:02:04 AM 38.5000 -121.3667 50° Northeast 155 178 11,000  Level Northern Cal TRACON
Fri 10:02:30 AM 38.5069 -121.3533 56° Northeast 154 177 11,000  Level Oakland Center
Fri 10:03:31 AM 38.5342 -121.3103 51° Northeast 156 180 11,000  Level Oakland Center
Fri 10:04:32 AM 38.5614 -121.2672 51° Northeast 157 181 11,000  Level Oakland Center
Fri 10:05:33 AM 38.5867 -121.2278 51° Northeast 147 169 11,000  Level Oakland Center
Fri 10:06:34 AM 38.6175 -121.1786 51° Northeast 148 170 11,000  Level Oakland Center
Fri 10:07:10 AM 38.6333 -121.1500 55° Northeast 151 174 11,000  Level Northern Cal TRACON
Fri 10:08:04 AM 38.6500 -121.1167 57° Northeast 149 171 11,000  Level Northern Cal TRACON
Fri 10:08:36 AM 38.6667 -121.1011 36° Northeast 150 173 11,000  Level Oakland Center
Fri 10:09:37 AM 38.6933 -121.0589 51° Northeast 153 176 11,000  Level Oakland Center
Fri 10:10:38 AM 38.7189 -121.0181 51° Northeast 147 169 11,000  Level Oakland Center
Fri 10:11:39 AM 38.7494 -120.9692 51° Northeast 148 170 11,000  Level Oakland Center
Fri 10:13:00 AM 38.7817 -120.9153 52° Northeast  Level FlightAware Approximate
Fri 10:13:41 AM 38.8006 -120.8872 52° Northeast 145 167 11,000  Level Oakland Center
Fri 10:14:42 AM 38.8281 -120.8500 47° Northeast 145 167 11,000  Level Oakland Center
Fri 10:15:43 AM 38.8583 -120.8175 40° Northeast 143 165 11,000  Level Oakland Center
Fri 10:16:44 AM 38.8897 -120.7853 39° Northeast 144 166 11,000  Level Oakland Center
Fri 10:17:45 AM 38.9194 -120.7519 41° Northeast 141 162 11,000  Level Oakland Center
Fri 10:18:46 AM 38.9492 -120.7206 39° Northeast 139 160 11,000  Level Oakland Center
Fri 10:19:47 AM 38.9806 -120.6892 38° Northeast 142 163 11,000  Level Oakland Center
Fri 10:20:49 AM 39.0106 -120.6575 39° Northeast 141 162 11,000  Level Oakland Center
Fri 10:21:50 AM 39.0406 -120.6258 39° Northeast 139 160 11,000  Level Oakland Center
Fri 10:22:51 AM 39.0700 -120.5939 40° Northeast 139 160 11,000  Level Oakland Center
Fri 10:23:52 AM 39.1061 -120.5561 39° Northeast 140 161 11,000  Level Oakland Center
Fri 10:24:53 AM 39.1350 -120.5231 42° Northeast 139 160 11,000  Level Oakland Center
Fri 10:25:54 AM 39.1611 -120.4886 46° Northeast 136 157 11,000  Level Oakland Center
Fri 10:26:56 AM 39.1894 -120.4572 41° Northeast 136 157 11,000  Level Oakland Center
Fri 10:27:57 AM 39.2181 -120.4275 39° Northeast 134 154 11,000  Level Oakland Center

Login

Don't have an account? Register now (free) for customized features, flight alerts, and more!